createdAt,value
2022-10-23T10:30:01.454Z,25.20
2022-10-23T10:32:47.528Z,25.30
2022-10-23T10:35:52.456Z,25.40
2022-10-23T10:38:49.009Z,25.30
2022-10-23T10:41:44.009Z,25.40
2022-10-23T10:44:39.949Z,25.30
2022-10-23T10:47:40.997Z,25.30
2022-10-23T10:50:29.159Z,25.30
2022-10-23T10:53:41.371Z,25.30
2022-10-23T10:56:15.705Z,25.40
2022-10-23T10:59:06.099Z,25.40
2022-10-23T11:01:59.692Z,25.40
2022-10-23T11:04:33.862Z,25.40
2022-10-23T11:07:07.255Z,25.40
2022-10-23T11:09:37.586Z,25.40
2022-10-23T11:12:07.699Z,25.40
2022-10-23T11:14:38.016Z,25.50
2022-10-23T11:17:11.312Z,25.50
2022-10-23T11:20:05.133Z,25.50
2022-10-23T11:22:40.067Z,25.50
2022-10-23T11:25:10.381Z,25.50
2022-10-23T11:28:15.992Z,25.50
2022-10-23T11:31:09.456Z,25.50
2022-10-23T11:34:09.133Z,25.60
2022-10-23T11:36:58.600Z,25.60
2022-10-23T11:39:33.704Z,25.50
2022-10-23T11:42:08.266Z,25.50
2022-10-23T11:44:56.684Z,25.50
2022-10-23T11:47:40.676Z,25.60
2022-10-23T11:50:10.762Z,25.60
2022-10-23T11:52:50.331Z,25.50
2022-10-23T11:55:23.813Z,25.50
2022-10-23T11:58:22.789Z,25.50
2022-10-23T12:01:07.744Z,25.50
2022-10-23T12:04:00.807Z,25.50
2022-10-23T12:06:39.154Z,25.50
2022-10-23T12:09:29.020Z,25.60
2022-10-23T12:12:15.757Z,25.60
2022-10-23T12:14:48.490Z,25.60
2022-10-23T12:17:24.486Z,25.60
2022-10-23T12:20:03.040Z,25.60
2022-10-23T12:22:57.694Z,25.60
2022-10-23T12:25:46.109Z,25.60
2022-10-23T12:28:34.751Z,25.70
2022-10-23T12:31:31.092Z,25.70
2022-10-23T12:34:08.412Z,25.70
2022-10-23T12:36:41.077Z,25.70
2022-10-23T12:39:30.933Z,25.60
2022-10-23T12:42:02.304Z,25.70
2022-10-23T12:44:32.689Z,25.70
2022-10-23T12:47:03.968Z,25.70
2022-10-23T12:49:35.842Z,25.70
2022-10-23T12:52:08.164Z,25.70
2022-10-23T12:54:40.082Z,25.70
2022-10-23T12:57:24.470Z,25.70
2022-10-23T13:00:07.286Z,25.70
2022-10-23T13:02:37.693Z,25.70
2022-10-23T13:05:08.857Z,25.70
2022-10-23T13:07:41.321Z,25.70
2022-10-23T13:10:21.861Z,25.70
2022-10-23T13:12:59.997Z,25.70
2022-10-23T13:15:42.164Z,25.70
2022-10-23T13:18:15.423Z,25.70
2022-10-23T13:20:54.696Z,25.70
2022-10-23T13:23:35.443Z,25.70
2022-10-23T13:26:27.740Z,25.70
2022-10-23T13:28:58.149Z,25.70
2022-10-23T13:31:31.336Z,25.70
2022-10-23T13:34:01.404Z,25.70
2022-10-23T13:36:32.983Z,25.70
2022-10-23T13:39:10.948Z,25.80
2022-10-23T13:41:47.565Z,25.70
2022-10-23T13:44:22.446Z,25.70
2022-10-23T13:46:54.756Z,25.70
2022-10-23T13:49:24.791Z,25.70
2022-10-23T13:51:56.087Z,25.70
2022-10-23T13:57:02.586Z,25.70
2022-10-23T13:59:32.634Z,25.70
2022-10-23T14:02:02.819Z,25.70
2022-10-23T14:04:32.975Z,25.70
2022-10-23T14:07:06.448Z,25.70
2022-10-23T14:09:37.170Z,25.80
2022-10-23T14:12:07.349Z,25.70
2022-10-23T14:14:37.606Z,25.70
2022-10-23T14:17:08.155Z,25.70
2022-10-23T14:19:39.018Z,25.70
2022-10-23T14:22:08.999Z,25.70
2022-10-23T14:24:39.175Z,25.70
2022-10-23T14:27:09.685Z,25.70
2022-10-23T14:29:41.410Z,25.70
2022-10-23T14:32:11.740Z,25.70
2022-10-23T14:34:45.105Z,25.70
2022-10-23T14:37:15.610Z,25.70
2022-10-23T14:39:49.759Z,25.70
2022-10-23T14:42:20.565Z,25.70
2022-10-23T14:44:51.510Z,25.70
2022-10-23T14:47:21.588Z,25.70
2022-10-23T14:49:53.677Z,25.70
2022-10-23T14:52:23.536Z,25.80
2022-10-23T14:54:54.844Z,25.70
2022-10-23T14:57:24.973Z,25.80
2022-10-23T14:59:55.007Z,25.70
2022-10-23T15:02:25.017Z,25.70
2022-10-23T15:04:55.154Z,25.80
2022-10-23T15:07:25.265Z,25.80
2022-10-23T15:09:56.815Z,25.70
2022-10-23T15:12:27.008Z,25.70
2022-10-23T15:14:56.982Z,25.70
2022-10-23T15:17:27.019Z,25.70
2022-10-23T15:19:57.025Z,25.70
2022-10-23T15:22:31.375Z,25.70
2022-10-23T15:25:01.678Z,25.80
2022-10-23T15:27:31.846Z,25.70
2022-10-23T15:30:01.894Z,25.70
2022-10-23T15:32:32.911Z,25.70
2022-10-23T15:35:02.996Z,25.70
2022-10-23T15:37:32.989Z,25.70
2022-10-23T15:40:02.961Z,25.70
2022-10-23T15:42:33.076Z,25.70
2022-10-23T15:45:03.139Z,25.70
2022-10-23T15:47:33.230Z,25.70
2022-10-23T15:50:03.329Z,25.70
2022-10-23T15:52:33.297Z,25.70
2022-10-23T15:55:03.557Z,25.70
2022-10-23T15:57:33.723Z,25.60
2022-10-23T16:00:03.758Z,25.60
2022-10-23T16:02:38.849Z,25.60
2022-10-23T16:05:09.070Z,25.60
2022-10-23T16:07:39.414Z,25.60
2022-10-23T16:10:10.269Z,25.50
2022-10-23T16:12:40.327Z,25.60
2022-10-23T16:15:10.790Z,25.50
2022-10-23T16:17:41.109Z,25.50
2022-10-23T16:20:12.366Z,25.50
2022-10-23T16:22:45.577Z,25.50
2022-10-23T16:25:16.000Z,25.50
2022-10-23T16:27:46.739Z,25.50
2022-10-23T16:30:17.487Z,25.40
2022-10-23T16:32:47.545Z,25.50
2022-10-23T16:35:17.804Z,25.40
2022-10-23T16:38:00.167Z,25.40
2022-10-23T16:40:30.307Z,25.40
2022-10-23T16:43:20.491Z,25.40
2022-10-23T16:46:10.875Z,25.40
2022-10-23T16:48:41.020Z,25.40
2022-10-23T16:51:15.367Z,25.40
2022-10-23T16:53:45.717Z,25.40
2022-10-23T16:56:17.031Z,25.40
2022-10-23T16:58:47.360Z,25.40
2022-10-23T17:01:18.615Z,25.40
2022-10-23T17:03:49.899Z,25.40
2022-10-23T17:06:21.749Z,25.40
2022-10-23T17:08:52.253Z,25.40
2022-10-23T17:11:24.151Z,25.40
2022-10-23T17:13:58.664Z,25.30
2022-10-23T17:16:35.919Z,25.40
2022-10-23T17:19:15.787Z,25.30
2022-10-23T17:21:51.096Z,25.30
2022-10-23T17:24:21.350Z,25.30
2022-10-23T17:26:52.417Z,25.30
2022-10-23T17:29:22.652Z,25.30
2022-10-23T17:31:52.847Z,25.30
2022-10-23T17:34:24.082Z,25.30
2022-10-23T17:36:55.591Z,25.30
2022-10-23T17:39:29.987Z,25.30
2022-10-23T17:42:00.536Z,25.30
2022-10-23T17:44:30.595Z,25.20
2022-10-23T17:47:00.842Z,25.30
2022-10-23T17:49:34.033Z,25.30
2022-10-23T17:52:03.896Z,25.30
2022-10-23T17:54:33.848Z,25.20
2022-10-23T17:57:04.139Z,25.20
2022-10-23T17:59:34.426Z,25.30
2022-10-23T18:02:04.519Z,25.30
2022-10-23T18:04:34.432Z,25.20
2022-10-23T18:07:04.324Z,25.20
2022-10-23T18:09:34.281Z,25.20
2022-10-23T18:12:04.119Z,25.20
2022-10-23T18:14:37.399Z,25.20
2022-10-23T18:17:07.951Z,25.20
2022-10-23T18:19:38.303Z,25.20
2022-10-23T18:22:08.290Z,25.20
2022-10-23T18:24:39.387Z,25.20
2022-10-23T18:27:09.589Z,25.20
2022-10-23T18:29:40.660Z,25.20
2022-10-23T18:32:11.047Z,25.20
2022-10-23T18:34:41.020Z,25.20
2022-10-23T18:37:11.548Z,25.20
2022-10-23T18:39:41.759Z,25.20
2022-10-23T18:42:11.828Z,25.20
2022-10-23T18:44:45.202Z,25.10
2022-10-23T18:49:49.869Z,25.20
2022-10-23T18:52:19.883Z,25.20
2022-10-23T18:54:49.812Z,25.10
2022-10-23T18:57:19.854Z,25.10
2022-10-23T18:59:52.118Z,25.10
2022-10-23T19:02:22.226Z,25.10
2022-10-23T19:04:52.298Z,25.10
2022-10-23T19:07:22.269Z,25.10
2022-10-23T19:09:52.425Z,25.10
2022-10-23T19:12:22.854Z,25.10
2022-10-23T19:14:53.369Z,25.10
2022-10-23T19:17:25.226Z,25.10
2022-10-23T19:20:07.773Z,25.10
2022-10-23T19:22:37.440Z,25.10
2022-10-23T19:25:13.969Z,25.10
2022-10-23T19:27:44.907Z,25.10
2022-10-23T19:30:22.572Z,25.10
2022-10-23T19:32:53.135Z,25.10
2022-10-23T19:35:23.361Z,25.10
2022-10-23T19:37:53.692Z,25.10
2022-10-23T19:40:25.448Z,25.10
2022-10-23T19:42:55.477Z,25.10
2022-10-23T19:45:25.717Z,25.10
2022-10-23T19:47:55.640Z,25.10
2022-10-23T19:50:25.507Z,25.10
2022-10-23T19:52:55.387Z,25.10
2022-10-23T19:55:25.410Z,25.10
2022-10-23T19:57:55.297Z,25.10
2022-10-23T20:00:26.897Z,25.10
2022-10-23T20:02:56.938Z,25.10
2022-10-23T20:05:26.996Z,25.10
2022-10-23T20:07:57.205Z,25.10
2022-10-23T20:10:27.452Z,25.10
2022-10-23T20:13:18.236Z,25.10
2022-10-23T20:15:47.685Z,25.10
2022-10-23T20:18:17.731Z,25.10
2022-10-23T20:20:47.727Z,25.10
2022-10-23T20:23:17.675Z,25.10
2022-10-23T20:25:47.660Z,25.10
2022-10-23T20:28:17.677Z,25.10
2022-10-23T20:30:47.642Z,25.10
2022-10-23T20:33:17.538Z,25.10
2022-10-23T20:35:47.509Z,25.10
2022-10-23T20:38:17.910Z,25.10
2022-10-23T20:40:48.120Z,25.10
2022-10-23T20:43:17.975Z,25.10
2022-10-23T20:45:47.938Z,25.10
2022-10-23T20:48:17.941Z,25.10
2022-10-23T20:50:47.820Z,25.10
2022-10-23T20:53:17.811Z,25.10
2022-10-23T20:55:47.745Z,25.10
2022-10-23T20:58:17.656Z,25.10
2022-10-23T21:00:48.602Z,25.10
2022-10-23T21:03:19.827Z,25.10
2022-10-23T21:05:49.914Z,25.10
2022-10-23T21:08:19.794Z,25.10
2022-10-23T21:10:50.257Z,25.10
2022-10-23T21:13:20.276Z,25.10
2022-10-23T21:15:50.836Z,25.10
2022-10-23T21:18:34.061Z,25.10
2022-10-23T21:21:12.068Z,25.10
2022-10-23T21:23:42.333Z,25.10
2022-10-23T21:26:12.249Z,25.10
2022-10-23T21:28:47.335Z,25.00
2022-10-23T21:31:26.981Z,25.10
2022-10-23T21:33:57.090Z,25.00
2022-10-23T21:36:27.313Z,25.00
2022-10-23T21:38:59.417Z,25.00
2022-10-23T21:41:33.647Z,25.00
2022-10-23T21:44:05.597Z,25.10
2022-10-23T21:46:37.092Z,25.00
2022-10-23T21:49:07.320Z,25.10
2022-10-23T21:51:38.473Z,25.10
2022-10-23T21:54:09.721Z,25.00
2022-10-23T21:56:43.829Z,25.10
2022-10-23T21:59:20.671Z,25.00
2022-10-23T22:01:52.982Z,25.00
2022-10-23T22:04:23.681Z,25.00
2022-10-23T22:06:54.470Z,25.00
2022-10-23T22:09:24.541Z,25.00
2022-10-23T22:11:55.135Z,25.00
2022-10-23T22:14:25.490Z,25.00
2022-10-23T22:16:56.257Z,25.00
2022-10-23T22:19:26.695Z,25.00
2022-10-23T22:21:56.870Z,25.00
2022-10-23T22:24:27.267Z,25.00
2022-10-23T22:26:58.854Z,25.00
2022-10-23T22:29:30.575Z,25.00
2022-10-23T22:32:01.930Z,25.00
2022-10-23T22:34:51.818Z,25.00
2022-10-23T22:37:22.384Z,25.00
2022-10-23T22:39:53.331Z,25.00
2022-10-23T22:42:24.354Z,25.00
2022-10-23T22:44:54.714Z,25.00
2022-10-23T22:47:25.096Z,25.00
2022-10-23T22:49:55.323Z,25.00
2022-10-23T22:52:25.864Z,25.00
2022-10-23T22:54:56.047Z,25.00
2022-10-23T22:59:56.738Z,25.00
2022-10-23T23:02:27.438Z,25.00
2022-10-23T23:04:57.697Z,25.00
2022-10-23T23:07:27.650Z,25.00
2022-10-23T23:09:57.691Z,25.00
2022-10-23T23:12:27.934Z,25.00
2022-10-23T23:15:00.175Z,25.00
2022-10-23T23:17:30.086Z,25.00
2022-10-23T23:20:00.195Z,25.00
2022-10-23T23:22:31.066Z,25.00
2022-10-23T23:25:01.206Z,25.00
2022-10-23T23:27:31.086Z,25.00
2022-10-23T23:30:01.026Z,25.00
2022-10-23T23:32:31.385Z,25.00
2022-10-23T23:35:02.053Z,25.00
2022-10-23T23:37:32.068Z,25.00
2022-10-23T23:40:01.957Z,24.90
2022-10-23T23:42:32.373Z,25.00
2022-10-23T23:45:10.244Z,25.00
2022-10-23T23:47:44.937Z,25.00
2022-10-23T23:50:15.016Z,25.00
2022-10-23T23:52:45.670Z,24.90
2022-10-23T23:55:15.650Z,24.90
2022-10-23T23:57:45.976Z,24.90
